Time;durP1;ratioP1;P1;durP2;ratioP2;P2;SDS_P1;SDS_P2;PMS_P1;PMS_P2;Temp;Humidity;BMP_temperature;BMP_pressure;BME280_temperature;BME280_humidity;BME280_pressure;Samples;Min_cycle;Max_cycle;Signal;HPM_P1;HPM_P2
2022/08/11 00:00:35;;;;;;;7.30;3.00;;;;;;;20.48;47.18;102118.78;5022956;28;20172;-91
2022/08/11 00:03:08;;;;;;;10.30;3.03;;;;;;;20.44;47.31;102130.63;5030517;28;20025;-91
2022/08/11 00:05:47;;;;;;;7.65;3.10;;;;;;;20.39;46.48;102128.13;5024800;28;20033;-91
2022/08/11 00:08:24;;;;;;;8.07;2.92;;;;;;;20.38;46.90;102125.50;5036078;28;20037;-91
2022/08/11 00:10:57;;;;;;;7.13;2.72;;;;;;;20.30;46.91;102120.47;5038149;28;20128;-91
2022/08/11 00:13:33;;;;;;;9.70;2.85;;;;;;;20.28;47.11;102118.78;5027503;28;20047;-91
2022/08/11 00:16:00;;;;;;;6.63;2.95;;;;;;;20.18;47.33;102119.16;5014254;28;20041;-91
2022/08/11 00:18:26;;;;;;;8.18;2.63;;;;;;;20.16;47.38;102121.03;5014599;28;20436;-91
2022/08/11 00:20:58;;;;;;;4.95;2.78;;;;;;;20.16;47.43;102121.03;5001429;28;20120;-91
2022/08/11 00:23:25;;;;;;;6.22;3.28;;;;;;;20.08;47.99;102122.28;5037571;28;20370;-91
2022/08/11 00:25:52;;;;;;;10.20;3.10;;;;;;;20.01;48.05;102118.13;5016720;28;20041;-90
2022/08/11 00:28:32;;;;;;;8.77;3.20;;;;;;;20.07;46.77;102124.09;5025088;28;20318;-91
2022/08/11 00:31:02;;;;;;;7.00;2.63;;;;;;;19.99;48.01;102112.78;5039651;28;20045;-90
2022/08/11 00:33:48;;;;;;;7.18;3.03;;;;;;;19.99;47.20;102118.16;5046094;28;20057;-90
2022/08/11 00:36:18;;;;;;;5.90;2.60;;;;;;;19.96;47.87;102116.47;5019889;28;20132;-91
2022/08/11 00:38:50;;;;;;;7.40;2.80;;;;;;;19.93;47.72;102123.78;5028134;28;20037;-91
2022/08/11 00:41:34;;;;;;;3.97;2.33;;;;;;;19.94;47.49;102126.41;5033820;28;20041;-90
2022/08/11 00:44:27;;;;;;;6.05;2.97;;;;;;;19.94;47.40;102122.84;5017169;28;20462;-91
2022/08/11 00:47:04;;;;;;;6.32;2.80;;;;;;;19.88;47.47;102115.03;5003753;28;20034;-90
2022/08/11 00:49:30;;;;;;;10.38;3.13;;;;;;;19.83;48.25;102117.03;5033988;28;20041;-91
2022/08/11 00:52:17;;;;;;;7.88;2.80;;;;;;;19.81;48.57;102122.47;5017361;28;20026;-91
2022/08/11 00:54:55;;;;;;;10.75;2.88;;;;;;;19.82;47.83;102128.72;5033654;28;20132;-91
2022/08/11 00:57:29;;;;;;;6.18;3.00;;;;;;;19.77;48.72;102116.34;5041039;28;20120;-91
2022/08/11 00:59:54;;;;;;;6.95;3.00;;;;;;;19.76;49.14;102116.41;5021941;28;20323;-90
2022/08/11 01:02:50;;;;;;;3.55;2.55;;;;;;;19.76;47.52;102116.41;5018184;28;20033;-90
2022/08/11 01:05:22;;;;;;;10.80;2.90;;;;;;;19.68;48.88;102116.72;5048115;28;20037;-90
2022/08/11 01:08:21;;;;;;;8.52;2.63;;;;;;;19.62;49.07;102119.59;5027876;28;20033;-91
2022/08/11 01:11:23;;;;;;;7.88;3.60;;;;;;;19.62;48.55;102118.75;5031709;28;20469;-91
2022/08/11 01:14:33;;;;;;;7.10;2.78;;;;;;;19.61;48.64;102125.03;5031371;28;20433;-91
2022/08/11 01:17:12;;;;;;;9.35;3.20;;;;;;;19.51;49.01;102121.81;5028965;28;20033;-91
2022/08/11 01:19:44;;;;;;;5.78;3.20;;;;;;;19.49;49.28;102118.34;5036868;28;20342;-90
2022/08/11 01:22:28;;;;;;;4.75;3.00;;;;;;;19.43;49.91;102124.81;5051692;28;20079;-92
2022/08/11 01:25:12;;;;;;;7.10;3.30;;;;;;;19.44;49.02;102123.03;5014765;28;20088;-91
2022/08/11 01:28:17;;;;;;;12.00;3.38;;;;;;;19.41;49.20;102132.09;5017434;28;20449;-91
2022/08/11 01:30:51;;;;;;;6.82;2.88;;;;;;;19.36;49.91;102123.28;5026330;28;20108;-91
2022/08/11 01:33:52;;;;;;;6.32;3.10;;;;;;;19.37;49.06;102125.06;5042629;28;20491;-91
2022/08/11 01:36:42;;;;;;;5.72;3.15;;;;;;;19.29;49.87;102128.06;5030335;28;20044;-91
2022/08/11 01:39:10;;;;;;;7.30;3.28;;;;;;;19.23;50.62;102127.41;5030896;28;20478;-91
2022/08/11 01:45:10;;;;;;;5.80;3.25;;;;;;;19.16;50.12;102120.50;5012038;28;20060;-91
2022/08/11 01:47:49;;;;;;;8.27;2.95;;;;;;;19.14;51.10;102115.22;5009412;28;20073;-91
2022/08/11 01:50:36;;;;;;;8.15;3.05;;;;;;;19.09;51.29;102123.44;5028296;28;20033;-91
2022/08/11 01:53:16;;;;;;;8.25;3.20;;;;;;;19.07;50.36;102114.56;5021935;28;20033;-91
2022/08/11 01:55:56;;;;;;;8.30;3.30;;;;;;;19.04;50.08;102117.34;5017391;28;20041;-92
2022/08/11 01:58:29;;;;;;;7.10;2.70;;;;;;;18.99;50.22;102107.69;5036685;28;20488;-93
2022/08/11 02:01:10;;;;;;;4.07;2.92;;;;;;;18.96;50.61;102116.75;5042184;28;20460;-92
2022/08/11 02:03:48;;;;;;;8.70;3.00;;;;;;;18.88;51.22;102111.66;5004209;28;20472;-92
2022/08/11 02:06:55;;;;;;;8.05;2.80;;;;;;;18.93;50.70;102121.34;5048312;28;20032;-93
2022/08/11 02:09:42;;;;;;;6.05;3.38;;;;;;;18.86;51.04;102121.56;5037582;28;20044;-92
2022/08/11 02:12:26;;;;;;;8.07;3.47;;;;;;;18.81;51.04;102120.00;5012132;28;20425;-92
2022/08/11 02:15:00;;;;;;;11.48;3.58;;;;;;;18.74;52.25;102119.28;5038603;28;20067;-91
2022/08/11 02:17:57;;;;;;;8.88;3.20;;;;;;;18.70;51.59;102117.66;5034416;28;20037;-91
2022/08/11 02:23:47;;;;;;;5.78;2.97;;;;;;;18.61;51.75;102123.34;4993548;28;20034;-92
2022/08/11 02:26:23;;;;;;;8.40;3.40;;;;;;;18.56;52.11;102119.94;5049872;28;20052;-92
2022/08/11 02:29:09;;;;;;;6.00;3.10;;;;;;;18.53;51.91;102128.13;5023402;28;20119;-92
2022/08/11 02:35:22;;;;;;;7.00;3.27;;;;;;;18.39;51.25;102123.22;5029255;28;20086;-94
2022/08/11 02:37:57;;;;;;;6.32;3.13;;;;;;;18.25;53.19;102119.22;5049997;28;20049;-93
2022/08/11 02:40:34;;;;;;;6.95;4.10;;;;;;;18.18;53.21;102114.09;5025916;28;20064;-92
2022/08/11 02:43:09;;;;;;;6.75;3.17;;;;;;;18.14;54.75;102117.81;5048799;28;20125;-92
2022/08/11 02:46:01;;;;;;;4.57;2.83;;;;;;;18.08;53.37;102107.31;5032942;28;20037;-92
2022/08/11 02:51:25;;;;;;;7.05;3.55;;;;;;;17.91;54.64;102106.03;5012941;28;20052;-92
2022/08/11 02:54:02;;;;;;;10.77;3.65;;;;;;;17.84;55.45;102112.50;5014851;28;20091;-92
2022/08/11 02:56:46;;;;;;;6.75;3.38;;;;;;;17.83;54.30;102118.81;5047766;28;20075;-92
2022/08/11 02:59:49;;;;;;;7.55;3.35;;;;;;;17.78;54.40;102116.25;5025046;28;20044;-92
2022/08/11 03:02:33;;;;;;;5.85;3.20;;;;;;;17.72;55.31;102121.78;5034808;28;20049;-92
2022/08/11 03:04:59;;;;;;;7.43;3.90;;;;;;;17.68;55.35;102119.25;5006730;28;20091;-92
2022/08/11 03:07:51;;;;;;;4.88;3.80;;;;;;;17.61;56.01;102116.78;5036321;28;20385;-92
2022/08/11 03:10:27;;;;;;;7.15;3.80;;;;;;;17.64;55.57;102121.16;5019279;28;20037;-93
2022/08/11 03:16:44;;;;;;;6.43;3.90;;;;;;;17.59;55.38;102117.75;5024797;28;20071;-93
2022/08/11 03:19:22;;;;;;;8.43;3.75;;;;;;;17.53;55.37;102116.13;5015565;28;20041;-92
2022/08/11 03:22:03;;;;;;;4.85;3.53;;;;;;;17.51;56.09;102114.44;5009858;28;20140;-92
2022/08/11 03:25:00;;;;;;;8.40;3.83;;;;;;;17.51;55.51;102117.97;5025355;28;20044;-91
2022/08/11 03:27:49;;;;;;;7.50;3.65;;;;;;;17.45;56.64;102114.59;5010961;28;20030;-92
2022/08/11 03:30:36;;;;;;;7.63;3.72;;;;;;;17.48;56.29;102118.06;5000327;28;20073;-92
2022/08/11 03:36:24;;;;;;;6.22;3.70;;;;;;;17.35;57.28;102124.72;5026302;28;20107;-92
2022/08/11 03:39:12;;;;;;;6.22;3.60;;;;;;;17.33;55.99;102115.84;5029733;28;20056;-91
2022/08/11 03:41:48;;;;;;;8.82;4.22;;;;;;;17.19;57.46;102109.09;5009918;28;20458;-92
2022/08/11 03:44:35;;;;;;;6.40;3.63;;;;;;;17.22;56.62;102120.66;5008514;28;20492;-92
2022/08/11 03:47:13;;;;;;;5.45;3.60;;;;;;;17.14;57.21;102116.41;5027913;28;20033;-91
2022/08/11 03:49:56;;;;;;;7.13;4.07;;;;;;;17.11;58.19;102111.13;5031519;28;20033;-92
2022/08/11 03:52:27;;;;;;;7.00;3.90;;;;;;;17.05;58.64;102105.06;5025531;28;20067;-92
2022/08/11 03:55:07;;;;;;;6.40;4.13;;;;;;;17.02;58.07;102105.16;5018965;28;20120;-93
2022/08/11 03:58:10;;;;;;;10.55;4.88;;;;;;;17.01;57.47;102112.28;5030032;28;20029;-92
2022/08/11 04:00:56;;;;;;;12.73;4.20;;;;;;;16.98;57.67;102120.41;5027215;28;20053;-91
2022/08/11 04:03:45;;;;;;;7.85;4.00;;;;;;;16.90;59.09;102111.75;4991680;28;20099;-91
2022/08/11 04:06:20;;;;;;;10.57;4.10;;;;;;;16.88;58.19;102108.22;5022272;28;20176;-91
2022/08/11 04:09:01;;;;;;;15.52;4.05;;;;;;;16.89;58.72;102118.91;5026798;28;20035;-91
2022/08/11 04:11:59;;;;;;;8.25;4.15;;;;;;;16.90;57.57;102114.41;5025441;28;20067;-90
2022/08/11 04:17:47;;;;;;;7.18;3.97;;;;;;;16.81;58.18;102107.50;5021790;28;20132;-91
2022/08/11 04:20:34;;;;;;;11.77;4.35;;;;;;;16.71;59.50;102106.84;5014590;28;20054;-91
2022/08/11 04:23:15;;;;;;;13.68;4.63;;;;;;;16.73;58.75;102106.81;5024947;28;20029;-92
2022/08/11 04:26:24;;;;;;;8.35;4.20;;;;;;;16.71;58.93;102105.97;5024137;28;20366;-90
2022/08/11 04:29:00;;;;;;;6.10;4.10;;;;;;;16.64;59.90;102113.31;5016267;28;20034;-91
2022/08/11 04:31:36;;;;;;;6.78;3.95;;;;;;;16.64;59.94;102107.06;5014685;28;20062;-91
2022/08/11 04:34:21;;;;;;;8.45;3.90;;;;;;;16.64;60.68;102107.06;5014267;28;20192;-91
2022/08/11 04:40:20;;;;;;;6.78;4.28;;;;;;;16.68;60.19;102114.97;5020698;28;20037;-91
2022/08/11 04:43:22;;;;;;;5.78;3.90;;;;;;;16.72;59.91;102108.63;5018725;28;20030;-91
2022/08/11 04:46:12;;;;;;;6.75;3.90;;;;;;;16.73;59.52;102107.69;5005562;28;20041;-90
2022/08/11 05:01:40;;;;;;;9.50;4.15;;;;;;;16.84;60.19;102110.13;5029471;28;19920;-91
2022/08/11 05:07:48;;;;;;;8.80;4.35;;;;;;;16.89;61.23;102108.19;5029057;28;20048;-91
2022/08/11 05:10:35;;;;;;;11.70;4.88;;;;;;;16.97;60.05;102113.31;5030085;28;20083;-91
2022/08/11 05:36:09;;;;;;;10.48;4.50;;;;;;;17.61;60.31;102118.56;5029420;28;20030;-91
2022/08/11 05:58:02;;;;;;;7.88;4.40;;;;;;;18.25;58.95;102127.25;5018474;28;20038;-90
2022/08/11 06:00:28;;;;;;;8.60;4.72;;;;;;;18.30;59.00;102119.06;5025889;28;20473;-92
2022/08/11 06:03:02;;;;;;;13.95;4.63;;;;;;;18.41;58.68;102121.34;5005810;28;20044;-90
2022/08/11 06:05:38;;;;;;;18.65;5.03;;;;;;;18.48;58.20;102120.22;5023276;28;20428;-91
2022/08/11 06:08:06;;;;;;;10.43;5.03;;;;;;;18.52;58.78;102116.50;5012513;28;20136;-92
2022/08/11 06:10:43;;;;;;;10.88;5.05;;;;;;;18.62;57.93;102119.72;5028831;28;20444;-91
2022/08/11 06:13:13;;;;;;;12.32;4.47;;;;;;;18.68;58.17;102122.22;5014200;28;20547;-92
2022/08/11 06:15:50;;;;;;;12.57;5.15;;;;;;;18.81;57.75;102130.72;5010191;28;20047;-91
2022/08/11 06:18:17;;;;;;;10.10;4.85;;;;;;;18.89;57.50;102120.56;5007804;28;20045;-91
2022/08/11 06:20:53;;;;;;;9.02;5.00;;;;;;;19.02;57.62;102126.41;5008608;28;20041;-92
2022/08/11 06:23:22;;;;;;;11.00;5.45;;;;;;;19.10;57.34;102118.94;5027146;28;20037;-92
2022/08/11 06:25:50;;;;;;;11.18;5.22;;;;;;;19.21;56.77;102129.25;5026631;28;20029;-91
2022/08/11 06:28:18;;;;;;;14.48;5.43;;;;;;;19.29;56.83;102133.41;5032374;28;20166;-91
2022/08/11 06:30:46;;;;;;;13.10;5.32;;;;;;;19.38;57.00;102128.63;5012757;28;20137;-90
2022/08/11 06:33:15;;;;;;;10.27;5.30;;;;;;;19.49;56.87;102134.47;5044811;28;20038;-91
2022/08/11 06:35:53;;;;;;;8.20;5.50;;;;;;;19.58;56.34;102128.72;5015852;28;20034;-90
2022/08/11 06:38:40;;;;;;;17.63;5.53;;;;;;;19.69;56.17;102126.53;5016226;28;20409;-91
2022/08/11 06:41:36;;;;;;;9.88;6.03;;;;;;;19.81;55.66;102125.16;5015254;28;20197;-91
2022/08/11 06:44:11;;;;;;;11.57;5.55;;;;;;;19.93;55.18;102126.47;5012796;28;20512;-92
2022/08/11 06:46:45;;;;;;;16.42;6.00;;;;;;;20.01;55.33;102124.34;5010526;28;20127;-92
2022/08/11 06:52:04;;;;;;;12.98;6.35;;;;;;;20.28;55.15;102132.22;5032488;28;20048;-91
2022/08/11 06:54:34;;;;;;;13.90;6.53;;;;;;;20.38;55.12;102129.06;5032308;28;20140;-92
2022/08/11 07:02:47;;;;;;;11.77;5.60;;;;;;;20.76;54.26;102125.69;5017946;28;20043;-92
2022/08/11 07:05:21;;;;;;;11.95;5.80;;;;;;;20.88;53.69;102127.84;5032318;28;20504;-92
2022/08/11 07:17:16;;;;;;;10.15;5.50;;;;;;;21.40;51.81;102130.88;5041274;28;20037;-92
2022/08/11 07:31:13;;;;;;;8.48;4.80;;;;;;;22.13;50.44;102120.13;5031256;28;20063;-91
2022/08/11 07:33:48;;;;;;;10.40;4.70;;;;;;;22.28;49.74;102123.94;5014665;28;20048;-90
2022/08/11 07:36:21;;;;;;;11.45;5.40;;;;;;;22.42;49.20;102124.09;5017645;28;20400;-90
2022/08/11 07:38:51;;;;;;;9.85;4.10;;;;;;;22.58;48.06;102124.19;5028056;28;20393;-92
2022/08/11 07:41:20;;;;;;;9.77;3.65;;;;;;;22.66;48.02;102124.66;5004600;28;20029;-92
2022/08/11 07:43:51;;;;;;;9.18;4.22;;;;;;;22.79;48.25;102115.91;5019700;28;20022;-93
2022/08/11 07:54:35;;;;;;;8.48;4.18;;;;;;;23.31;45.69;102123.91;5020884;28;20052;-93
2022/08/11 08:19:15;;;;;;;8.38;3.47;;;;;;;24.51;42.22;102117.94;5032979;28;20090;-91
2022/08/11 08:21:42;;;;;;;8.63;3.42;;;;;;;24.64;41.83;102120.78;5024352;28;20053;-92
2022/08/11 08:24:09;;;;;;;11.80;4.05;;;;;;;24.79;42.21;102124.38;5029883;28;20501;-92
2022/08/11 08:32:07;;;;;;;10.90;3.63;;;;;;;25.21;41.18;102118.16;5023679;28;20462;-81
2022/08/11 08:34:35;;;;;;;7.93;3.60;;;;;;;25.34;40.05;102111.94;5013412;28;20482;-82
2022/08/11 08:37:05;;;;;;;8.32;3.30;;;;;;;25.48;40.89;102117.34;5005355;28;20400;-83
2022/08/11 08:39:33;;;;;;;9.48;3.22;;;;;;;25.57;40.19;102115.88;5010981;28;20037;-81
2022/08/11 08:42:02;;;;;;;9.45;3.30;;;;;;;25.76;39.79;102121.81;4998163;28;20084;-81
2022/08/11 08:44:33;;;;;;;11.77;3.10;;;;;;;25.82;37.93;102120.56;5026303;28;20029;-85
2022/08/11 08:46:59;;;;;;;12.52;3.67;;;;;;;25.86;37.40;102117.56;5025903;28;20366;-82
2022/08/11 08:49:38;;;;;;;8.25;3.55;;;;;;;25.89;37.59;102122.81;5022115;28;20484;-83
2022/08/11 08:52:07;;;;;;;12.18;3.20;;;;;;;25.96;36.85;102125.97;5013950;28;20034;-85
2022/08/11 08:54:36;;;;;;;14.23;3.92;;;;;;;25.96;36.55;102109.69;5027176;28;20415;-82
2022/08/11 08:57:05;;;;;;;10.80;3.50;;;;;;;26.08;36.85;102118.84;5023893;28;20530;-82
2022/08/11 08:59:35;;;;;;;8.85;3.28;;;;;;;26.17;36.70;102115.53;5014009;28;20025;-82
2022/08/11 09:02:03;;;;;;;7.80;3.00;;;;;;;26.29;36.70;102116.53;5016421;28;20053;-82
2022/08/11 09:04:29;;;;;;;8.25;3.13;;;;;;;26.42;37.02;102114.72;5015914;28;20413;-82
2022/08/11 09:06:58;;;;;;;7.78;3.13;;;;;;;26.50;35.93;102108.75;5015558;28;20025;-83
2022/08/11 09:09:25;;;;;;;5.93;2.97;;;;;;;26.68;35.98;102114.78;5020342;28;20052;-82
2022/08/11 09:11:54;;;;;;;7.78;3.28;;;;;;;26.87;35.54;102114.34;5034664;28;20033;-82
2022/08/11 09:14:24;;;;;;;9.00;3.10;;;;;;;26.96;34.80;102114.56;5012522;28;20087;-82
2022/08/11 09:16:51;;;;;;;9.15;3.50;;;;;;;27.07;35.63;102121.09;5016895;28;20036;-85
2022/08/11 09:19:22;;;;;;;9.52;2.75;;;;;;;27.21;34.85;102118.28;5026081;28;20037;-83
2022/08/11 09:26:58;;;;;;;6.65;2.90;;;;;;;27.34;34.03;102120.97;5017529;28;20469;-87
2022/08/11 09:27:22;;;;;;;6.68;3.05;;;;;;;27.50;33.50;102110.72;5033887;28;20044;-82
2022/08/11 09:29:49;;;;;;;8.40;3.22;;;;;;;27.63;33.69;102105.25;5017482;28;20512;-82
2022/08/11 09:32:19;;;;;;;9.52;3.03;;;;;;;27.85;33.36;102105.41;5033991;28;20037;-82
2022/08/11 09:34:45;;;;;;;8.32;2.83;;;;;;;27.98;32.69;102107.22;5033974;28;20151;-82
2022/08/11 09:45:30;;;;;;;9.82;2.97;;;;;;;28.41;31.98;102093.00;5016711;28;20037;-83
2022/08/11 09:47:57;;;;;;;9.35;3.00;;;;;;;28.45;32.04;102092.69;5002634;28;20112;-86
2022/08/11 09:50:23;;;;;;;9.70;3.22;;;;;;;28.62;32.26;102094.09;5032557;28;20087;-82
2022/08/11 09:52:49;;;;;;;11.73;2.85;;;;;;;28.79;31.91;102089.16;5032533;28;20030;-82
2022/08/11 09:55:16;;;;;;;5.80;2.92;;;;;;;28.90;31.10;102094.63;5015957;28;20037;-85
2022/08/11 10:00:36;;;;;;;10.55;3.20;;;;;;;29.16;30.72;102081.66;5040512;28;20456;-84
2022/08/11 10:03:06;;;;;;;6.03;2.97;;;;;;;29.28;30.47;102093.44;5018867;28;20061;-84
2022/08/11 10:08:18;;;;;;;11.40;3.20;;;;;;;29.55;29.98;102080.22;5017051;28;20132;-82
2022/08/11 10:10:45;;;;;;;12.85;3.28;;;;;;;29.71;29.53;102077.09;5033785;28;20021;-82
2022/08/11 10:13:19;;;;;;;6.40;2.60;;;;;;;29.84;30.73;102068.75;5013848;28;20559;-82
2022/08/11 10:15:45;;;;;;;5.63;2.70;;;;;;;30.06;29.87;102070.53;5006811;28;20076;-82
2022/08/11 10:18:41;;;;;;;14.13;3.08;;;;;;;30.21;30.07;102066.47;5009729;28;20056;-83
2022/08/11 10:21:13;;;;;;;6.60;2.90;;;;;;;30.35;28.93;102059.00;5031037;28;20029;-81
2022/08/11 10:34:46;;;;;;;6.38;2.80;;;;;;;30.82;28.70;102062.16;5032463;28;20041;-85
2022/08/11 10:37:13;;;;;;;7.60;2.97;;;;;;;30.91;28.29;102065.94;5032957;28;20029;-82
2022/08/11 10:39:40;;;;;;;11.30;2.53;;;;;;;30.91;27.39;102060.47;5033796;28;20095;-83
2022/08/11 10:44:54;;;;;;;8.02;2.30;;;;;;;31.25;27.37;102061.03;5020952;28;20091;-87
2022/08/11 10:47:38;;;;;;;8.48;2.60;;;;;;;31.32;25.69;102061.34;5033638;28;20079;-85
2022/08/11 11:01:13;;;;;;;5.95;2.50;;;;;;;31.81;25.57;102043.16;5019896;28;20040;-85
2022/08/11 11:03:40;;;;;;;11.38;2.83;;;;;;;32.03;25.96;102048.38;5003783;28;20029;-83
2022/08/11 11:06:24;;;;;;;5.75;2.53;;;;;;;32.20;26.62;102044.06;5017659;28;20018;-83
2022/08/11 11:09:02;;;;;;;6.78;2.60;;;;;;;32.26;25.03;102031.63;5022533;28;20025;-85
2022/08/11 11:19:41;;;;;;;6.15;2.40;;;;;;;32.39;23.76;102026.69;5030584;28;20099;-84
2022/08/11 11:25:01;;;;;;;10.02;2.35;;;;;;;32.49;23.76;102032.19;5016067;28;20048;-85
2022/08/11 11:27:41;;;;;;;8.20;2.70;;;;;;;32.63;23.63;102025.38;5001671;28;20087;-85
2022/08/11 11:30:13;;;;;;;7.90;2.40;;;;;;;32.78;23.31;102015.63;5011625;28;20046;-84
2022/08/11 11:32:45;;;;;;;5.13;2.30;;;;;;;32.94;23.67;102013.09;5030567;28;20493;-87
2022/08/11 11:35:52;;;;;;;8.90;2.50;;;;;;;33.13;24.49;102023.13;5031633;28;20120;-84
2022/08/11 11:38:21;;;;;;;4.07;2.45;;;;;;;33.33;22.93;102015.63;4992599;28;20038;-88
2022/08/11 11:41:23;;;;;;;4.47;2.25;;;;;;;33.41;22.49;102006.66;4976689;28;20046;-86
2022/08/11 11:43:36;;;;;;;7.22;2.38;;;;;;;33.33;22.05;102003.81;5010498;28;20123;-82
2022/08/11 11:46:05;;;;;;;6.95;2.30;;;;;;;33.65;22.58;102019.78;5026300;28;20052;-86
2022/08/11 11:48:31;;;;;;;8.75;2.42;;;;;;;33.64;22.05;102012.56;5014362;28;20025;-84
2022/08/11 11:50:58;;;;;;;9.55;2.72;;;;;;;33.75;22.14;102014.22;5020560;28;20038;-85
2022/08/11 11:53:24;;;;;;;5.45;2.33;;;;;;;33.86;21.14;102003.00;5016946;28;20077;-85
2022/08/11 11:55:50;;;;;;;9.27;2.42;;;;;;;34.09;23.36;102000.63;5014207;28;20030;-84
2022/08/11 12:01:18;;;;;;;5.63;2.47;;;;;;;34.57;20.27;102007.50;5030925;28;20060;-85
2022/08/11 12:03:50;;;;;;;4.05;2.00;;;;;;;34.40;19.43;101989.16;5008660;28;20084;-84
2022/08/11 12:06:18;;;;;;;9.73;2.58;;;;;;;34.58;20.67;101992.69;5029429;28;20034;-86
2022/08/11 12:08:48;;;;;;;6.10;2.33;;;;;;;34.62;21.44;101996.88;5010666;28;20139;-84
2022/08/11 12:14:02;;;;;;;7.13;2.40;;;;;;;34.64;20.50;101982.97;5027929;28;20076;-85
2022/08/11 12:16:28;;;;;;;12.57;3.17;;;;;;;35.07;21.37;101983.84;5013719;28;20044;-83
2022/08/11 12:18:58;;;;;;;6.53;2.50;;;;;;;35.35;21.43;101986.34;5030835;28;20067;-83
2022/08/11 12:21:25;;;;;;;;;;;;;;;35.58;22.09;101990.16;5031642;28;20117;-83
2022/08/11 12:29:26;;;;;;;3.53;2.20;;;;;;;35.91;19.29;101985.56;5011953;28;20153;-85
2022/08/11 12:31:53;;;;;;;9.32;2.75;;;;;;;36.16;19.53;101978.16;5027162;28;20029;-85
2022/08/11 12:34:20;;;;;;;6.82;2.65;;;;;;;36.23;19.01;101975.56;5017806;28;20494;-85
2022/08/11 12:36:57;;;;;;;5.65;2.22;;;;;;;36.49;19.51;101975.31;5002712;28;20030;-85
2022/08/11 12:53:26;;;;;;;7.15;2.25;;;;;;;36.54;19.35;101950.81;5026336;28;20041;-83
2022/08/11 12:58:47;;;;;;;13.45;2.78;;;;;;;36.87;18.23;101945.19;5022997;28;20128;-85
2022/08/11 13:06:42;;;;;;;5.78;2.38;;;;;;;37.04;18.73;101929.38;5021063;28;20029;-83
2022/08/11 13:09:10;;;;;;;6.68;2.33;;;;;;;37.20;17.97;101923.78;5021049;28;20065;-88
2022/08/11 13:14:26;;;;;;;6.38;2.20;;;;;;;36.69;17.34;101916.97;5034307;28;20038;-86
2022/08/11 13:19:36;;;;;;;7.15;2.28;;;;;;;37.34;17.17;101921.25;5029119;28;20117;-83
2022/08/11 13:22:06;;;;;;;8.93;2.03;;;;;;;37.53;16.12;101918.03;5017324;28;20041;-84
2022/08/11 13:24:33;;;;;;;7.72;2.30;;;;;;;37.55;15.94;101920.63;5020513;28;20492;-85
2022/08/11 13:26:59;;;;;;;9.05;2.17;;;;;;;37.41;15.98;101903.75;5029467;28;20097;-83
2022/08/11 13:29:27;;;;;;;5.30;2.25;;;;;;;37.53;17.68;101903.34;5011028;28;20065;-84
2022/08/11 13:31:57;;;;;;;8.20;2.50;;;;;;;37.44;15.90;101903.41;5006460;28;20041;-82
2022/08/11 13:34:25;;;;;;;9.38;2.58;;;;;;;37.68;17.16;101890.44;5033582;28;20121;-82
2022/08/11 13:36:57;;;;;;;11.65;2.50;;;;;;;38.00;16.02;101905.00;4998231;28;20074;-83
2022/08/11 13:39:25;;;;;;;5.55;2.05;;;;;;;38.48;15.80;101900.84;5005013;28;20481;-83
2022/08/11 13:41:53;;;;;;;4.10;2.13;;;;;;;38.48;15.42;101895.31;5025870;28;20048;-85
2022/08/11 13:44:19;;;;;;;6.97;2.13;;;;;;;38.81;15.76;101891.22;5014722;28;20084;-83
2022/08/11 13:46:45;;;;;;;5.32;2.15;;;;;;;38.63;15.29;101881.44;5033082;28;20472;-86
2022/08/11 13:49:15;;;;;;;5.32;1.90;;;;;;;39.08;15.58;101890.50;5032931;28;20048;-84
2022/08/11 13:51:41;;;;;;;4.22;2.15;;;;;;;39.25;16.00;101893.88;5023138;28;20102;-84
2022/08/11 13:54:17;;;;;;;10.02;2.10;;;;;;;39.59;16.06;101886.72;5032795;28;20064;-82
2022/08/11 13:56:48;;;;;;;5.60;2.45;;;;;;;39.45;14.99;101893.22;5016322;28;20021;-83
2022/08/11 13:59:21;;;;;;;5.78;2.22;;;;;;;39.87;16.21;101880.38;5032531;28;20505;-84
2022/08/11 14:01:51;;;;;;;4.80;2.17;;;;;;;39.85;15.52;101882.50;5032066;28;20044;-82
2022/08/11 14:04:32;;;;;;;12.82;2.55;;;;;;;39.76;15.42;101871.53;5032953;28;20043;-83
2022/08/11 14:07:02;;;;;;;4.25;2.00;;;;;;;39.85;15.79;101872.25;5029111;28;20034;-85
2022/08/11 14:09:31;;;;;;;3.78;2.00;;;;;;;39.77;14.37;101872.38;5026021;28;20028;-83
2022/08/11 14:14:55;;;;;;;6.32;2.10;;;;;;;40.24;14.90;101873.59;5032307;28;20043;-82
2022/08/11 14:17:21;;;;;;;4.93;1.98;;;;;;;40.31;14.80;101866.16;5030002;28;20037;-82
2022/08/11 14:19:50;;;;;;;5.72;2.20;;;;;;;40.25;14.88;101868.88;5032556;28;20063;-82
2022/08/11 14:22:17;;;;;;;7.18;2.10;;;;;;;40.27;14.90;101870.38;5028145;28;20112;-82
2022/08/11 14:24:48;;;;;;;10.75;2.20;;;;;;;40.14;14.23;101862.81;5029325;28;20041;-83
2022/08/11 14:27:15;;;;;;;7.50;2.65;;;;;;;40.30;14.04;101855.25;5033597;28;20045;-82
2022/08/11 14:29:42;;;;;;;6.45;2.08;;;;;;;39.98;12.88;101858.44;5032888;28;20052;-86
2022/08/11 14:32:10;;;;;;;4.88;1.90;;;;;;;40.21;14.27;101849.00;5032541;28;20045;-83
2022/08/11 14:34:40;;;;;;;6.10;1.92;;;;;;;40.32;13.67;101858.69;5031892;28;20832;-82
2022/08/11 14:37:12;;;;;;;8.82;1.92;;;;;;;39.98;13.24;101854.81;5024758;28;20033;-85
2022/08/11 14:39:51;;;;;;;3.70;1.90;;;;;;;40.06;14.09;101853.81;5032678;28;20447;-82
2022/08/11 14:48:02;;;;;;;7.35;1.83;;;;;;;40.16;13.53;101855.16;5030470;28;20040;-82
2022/08/11 14:50:32;;;;;;;6.05;2.20;;;;;;;40.36;13.24;101848.88;5007937;28;20412;-82
2022/08/11 14:53:06;;;;;;;10.70;2.13;;;;;;;40.67;14.28;101845.59;5024692;28;20041;-82
2022/08/11 14:58:32;;;;;;;13.35;2.65;;;;;;;40.64;13.40;101840.44;5031527;28;20060;-82
2022/08/11 15:03:05;;;;;;;6.22;2.00;;;;;;;40.57;14.09;101829.31;5030116;28;20106;-82
2022/08/11 15:03:54;;;;;;;4.97;1.70;;;;;;;40.59;13.08;101829.94;5029483;28;20459;-81
2022/08/11 15:06:20;;;;;;;7.57;1.92;;;;;;;40.47;13.12;101825.22;5031594;28;20022;-82
2022/08/11 15:09:05;;;;;;;4.57;1.70;;;;;;;40.67;14.13;101822.53;5031340;28;20033;-82
2022/08/11 15:17:06;;;;;;;8.15;2.10;;;;;;;40.73;14.25;101824.44;5028385;28;20041;-82
2022/08/11 15:17:09;;;;;;;6.13;2.13;;;;;;;40.29;12.83;101820.25;5031361;28;20048;-82
2022/08/11 15:24:17;;;;;;;4.60;2.05;;;;;;;40.83;14.30;101819.38;5031562;28;20060;-81
2022/08/11 15:25:08;;;;;;;4.22;2.00;;;;;;;41.47;14.59;101812.34;5016623;28;20401;-82
2022/08/11 15:38:52;;;;;;;7.15;1.90;;;;;;;40.85;14.50;101800.56;5030672;28;20041;-82
2022/08/11 15:46:56;;;;;;;11.15;2.00;;;;;;;41.56;12.58;101799.13;5012606;28;20030;-81
2022/08/11 15:49:33;;;;;;;4.33;2.10;;;;;;;41.32;12.37;101792.25;5014239;28;20041;-81
2022/08/11 15:52:07;;;;;;;3.33;1.80;;;;;;;41.24;13.39;101791.41;5022569;28;20378;-82
2022/08/11 15:54:37;;;;;;;7.55;1.95;;;;;;;41.57;13.69;101793.34;5012164;28;20049;-81
2022/08/11 15:57:04;;;;;;;6.80;1.90;;;;;;;41.19;12.97;101788.44;5019615;28;20385;-81
2022/08/11 16:05:10;;;;;;;6.13;2.10;;;;;;;41.63;13.59;101786.91;5025411;28;20044;-81
2022/08/11 16:07:37;;;;;;;3.08;1.73;;;;;;;41.23;12.72;101784.16;5014203;28;20056;-82
2022/08/11 16:10:08;;;;;;;8.68;2.00;;;;;;;41.56;13.43;101776.88;5030714;28;20029;-81
2022/08/11 16:12:38;;;;;;;8.02;1.83;;;;;;;41.80;13.89;101780.88;5031415;28;20454;-81
2022/08/11 16:17:59;;;;;;;5.80;2.03;;;;;;;41.80;13.04;101770.63;5030152;28;20474;-81
2022/08/11 16:20:28;;;;;;;8.15;1.95;;;;;;;41.79;13.16;101768.88;5024225;28;20034;-81
2022/08/11 16:22:58;;;;;;;8.90;2.10;;;;;;;41.63;12.85;101761.03;5031516;28;20018;-80
2022/08/11 16:25:25;;;;;;;8.27;1.85;;;;;;;41.79;12.48;101771.66;5030743;28;20072;-82
2022/08/11 16:28:04;;;;;;;4.85;2.28;;;;;;;41.70;13.71;101769.38;5030461;28;20040;-82
2022/08/11 16:30:31;;;;;;;;;;;;;;;41.89;13.92;101760.97;5044442;28;20106;-81
2022/08/11 16:32:57;;;;;;;8.93;1.90;;;;;;;42.03;13.17;101766.50;5045173;28;19924;-81
2022/08/11 16:40:57;;;;;;;16.33;2.47;;;;;;;41.96;13.07;101760.94;5031609;28;20059;-82
2022/08/11 16:49:00;;;;;;;6.72;1.95;;;;;;;42.00;13.08;101758.59;5042743;28;20111;-81
2022/08/11 16:51:26;;;;;;;5.43;2.13;;;;;;;41.83;13.13;101755.41;5034877;28;20021;-82
2022/08/11 16:53:52;;;;;;;6.75;1.83;;;;;;;41.71;12.21;101741.31;5029269;28;20041;-82